메인 페이지
METAR-TAF:

METAR-TAF

공항 :

트빌리시 국제공항

트빌리시, 조지아

위도: 41-40-09N, 경도: 044-57-17E, 고도: 495m

현재 날씨관측

예보는 15분 전, 10:30시(UTC)에 발표되었습니다.
북서17kt
온도 7°C
습도 49%
기압 1020 hPa
시정 10km 이상
1500m 미만 상공 구름 및 적란운 없음

METAR: UGTB 181030Z 32017KT CAVOK 07/M03 Q1020 NOSIG

시각: 14:45 (10:45 UTC)

예보

예보는 5 시간 45분 전, 05:00시(UTC)에 발표되었습니다.
예보 대상 시간: 18일 06시부터 19일 06시까지 (UTC)
북서13kt
시정 10km 이상
1500m 미만 상공 구름 및 적란운 없음
일시적
18일 07시부터 18일 13시까지 (UTC)
북서23kt
전환 중
18일 20시부터 18일 22시까지 (UTC)
고도 3000ft 상공 구름 많음
확률 40% :
일시적
19일 00시부터 19일 05시까지 (UTC)
시정: 4000m
고도 1800ft 상공 흐림
박무

TAF: UGTB 180500Z 1806/1906 31013KT CAVOK TX06/1812Z TNM03/1900Z TEMPO 1807/1813 32023KT BECMG 1820/1822 BKN030 PROB40 TEMPO 1900/1905 4000 BR OVC018

4,000개 이상의 공항 관측 자료 및 예보 (METAR 및 TAF 보고).

지도상에서 검색 가능한 기상관측소가 노란 점과 빨간 점으로 표시되어 있습니다.

기상관측소 명을 보려면 표시 위로 마우스를 이동하세요.

날씨 관측과 예보를 보려면 클릭하세요.

지도 변경 : 확대하려면 엑스 표시가 있는 녹색 버튼, 축소하려면 빼기 표시가 있는 녹색 버튼, 다음 페이지의 지도를 보려면 녹색 화살표를 클릭하세요.


METAR-TAF: